sensor_id;sensor_type;location;lat;lon;timestamp;temperature;humidity
19805;DHT22;10062;51.052;13.756;2023-03-12T00:01:51;-0.60;99.90
19805;DHT22;10062;51.052;13.756;2023-03-12T00:04:23;-0.60;1.00
19805;DHT22;10062;51.052;13.756;2023-03-12T00:06:56;-0.60;99.90
19805;DHT22;10062;51.052;13.756;2023-03-12T00:09:28;-0.60;1.00
19805;DHT22;10062;51.052;13.756;2023-03-12T00:11:59;-0.60;1.00
19805;DHT22;10062;51.052;13.756;2023-03-12T00:14:31;-0.70;1.00
19805;DHT22;10062;51.052;13.756;2023-03-12T00:17:03;-0.60;1.00
19805;DHT22;10062;51.052;13.756;2023-03-12T00:19:35;-0.60;99.90
19805;DHT22;10062;51.052;13.756;2023-03-12T00:22:08;-0.60;99.90
19805;DHT22;10062;51.052;13.756;2023-03-12T00:24:39;-0.50;1.00
19805;DHT22;10062;51.052;13.756;2023-03-12T00:27:11;-0.50;95.50
19805;DHT22;10062;51.052;13.756;2023-03-12T00:29:42;-0.50;99.90
19805;DHT22;10062;51.052;13.756;2023-03-12T00:32:14;-0.60;99.90
19805;DHT22;10062;51.052;13.756;2023-03-12T00:34:49;-0.50;99.90
19805;DHT22;10062;51.052;13.756;2023-03-12T00:37:22;-0.50;96.00
19805;DHT22;10062;51.052;13.756;2023-03-12T00:39:54;-0.50;1.00
19805;DHT22;10062;51.052;13.756;2023-03-12T00:42:26;-0.40;82.50
19805;DHT22;10062;51.052;13.756;2023-03-12T00:44:58;-0.50;2.00
19805;DHT22;10062;51.052;13.756;2023-03-12T00:47:29;-0.50;99.90
19805;DHT22;10062;51.052;13.756;2023-03-12T00:50:01;-0.60;99.90
19805;DHT22;10062;51.052;13.756;2023-03-12T00:52:34;-0.50;1.00
19805;DHT22;10062;51.052;13.756;2023-03-12T00:55:07;-0.60;99.90
19805;DHT22;10062;51.052;13.756;2023-03-12T00:57:39;-0.70;99.90
19805;DHT22;10062;51.052;13.756;2023-03-12T01:00:11;-0.70;99.90
19805;DHT22;10062;51.052;13.756;2023-03-12T01:02:43;-0.70;1.00
19805;DHT22;10062;51.052;13.756;2023-03-12T01:05:14;-0.80;1.00
19805;DHT22;10062;51.052;13.756;2023-03-12T01:07:47;-0.80;99.90
19805;DHT22;10062;51.052;13.756;2023-03-12T01:10:20;-0.80;1.00
19805;DHT22;10062;51.052;13.756;2023-03-12T01:12:51;-0.80;1.00
19805;DHT22;10062;51.052;13.756;2023-03-12T01:15:23;-0.80;1.00
19805;DHT22;10062;51.052;13.756;2023-03-12T01:17:55;-0.80;99.90
19805;DHT22;10062;51.052;13.756;2023-03-12T01:20:26;-0.80;1.00
19805;DHT22;10062;51.052;13.756;2023-03-12T01:22:59;-2.30;1.00
19805;DHT22;10062;51.052;13.756;2023-03-12T01:25:31;-0.90;99.90
19805;DHT22;10062;51.052;13.756;2023-03-12T01:28:04;-0.90;99.90
19805;DHT22;10062;51.052;13.756;2023-03-12T01:30:36;-1.00;99.90
19805;DHT22;10062;51.052;13.756;2023-03-12T01:33:08;-1.00;1.00
19805;DHT22;10062;51.052;13.756;2023-03-12T01:35:41;-1.00;1.00
19805;DHT22;10062;51.052;13.756;2023-03-12T01:38:14;-1.00;1.00
19805;DHT22;10062;51.052;13.756;2023-03-12T01:40:48;-1.10;99.90
19805;DHT22;10062;51.052;13.756;2023-03-12T01:43:29;-1.00;99.90
19805;DHT22;10062;51.052;13.756;2023-03-12T01:46:20;-1.00;1.00
19805;DHT22;10062;51.052;13.756;2023-03-12T01:48:56;-1.10;1.00
19805;DHT22;10062;51.052;13.756;2023-03-12T01:51:32;-1.00;1.00
19805;DHT22;10062;51.052;13.756;2023-03-12T01:54:10;-1.00;1.00
19805;DHT22;10062;51.052;13.756;2023-03-12T01:56:43;-1.00;1.00
19805;DHT22;10062;51.052;13.756;2023-03-12T01:59:18;-1.00;1.00
19805;DHT22;10062;51.052;13.756;2023-03-12T02:01:51;-1.10;1.00
19805;DHT22;10062;51.052;13.756;2023-03-12T02:04:26;-1.10;1.00
19805;DHT22;10062;51.052;13.756;2023-03-12T02:07:03;-1.10;1.00
19805;DHT22;10062;51.052;13.756;2023-03-12T02:09:39;-1.10;1.00
19805;DHT22;10062;51.052;13.756;2023-03-12T02:12:12;-1.10;1.00
19805;DHT22;10062;51.052;13.756;2023-03-12T02:14:44;-1.20;1.00
19805;DHT22;10062;51.052;13.756;2023-03-12T02:17:16;-1.20;1.00
19805;DHT22;10062;51.052;13.756;2023-03-12T02:19:53;-1.20;1.00
19805;DHT22;10062;51.052;13.756;2023-03-12T02:22:28;-1.20;1.00
19805;DHT22;10062;51.052;13.756;2023-03-12T02:25:03;-1.20;1.00
19805;DHT22;10062;51.052;13.756;2023-03-12T02:27:38;-1.20;1.00
19805;DHT22;10062;51.052;13.756;2023-03-12T02:30:11;-1.10;1.00
19805;DHT22;10062;51.052;13.756;2023-03-12T02:32:47;-1.10;1.00
19805;DHT22;10062;51.052;13.756;2023-03-12T02:35:20;-1.10;1.00
19805;DHT22;10062;51.052;13.756;2023-03-12T02:37:54;-1.10;1.00
19805;DHT22;10062;51.052;13.756;2023-03-12T02:40:30;-1.20;1.00
19805;DHT22;10062;51.052;13.756;2023-03-12T02:43:06;-1.20;1.00
19805;DHT22;10062;51.052;13.756;2023-03-12T02:45:38;-1.10;1.00
19805;DHT22;10062;51.052;13.756;2023-03-12T02:48:11;-1.10;1.00
19805;DHT22;10062;51.052;13.756;2023-03-12T02:50:43;-1.10;1.00
19805;DHT22;10062;51.052;13.756;2023-03-12T02:53:15;0.70;99.90
19805;DHT22;10062;51.052;13.756;2023-03-12T02:55:46;-1.10;1.00
19805;DHT22;10062;51.052;13.756;2023-03-12T02:58:19;-1.20;1.00
19805;DHT22;10062;51.052;13.756;2023-03-12T03:00:51;-1.20;1.00
19805;DHT22;10062;51.052;13.756;2023-03-12T03:03:23;-1.20;1.00
19805;DHT22;10062;51.052;13.756;2023-03-12T03:05:55;-1.30;1.00
19805;DHT22;10062;51.052;13.756;2023-03-12T03:08:26;-1.30;1.00
19805;DHT22;10062;51.052;13.756;2023-03-12T03:10:58;-1.30;1.00
19805;DHT22;10062;51.052;13.756;2023-03-12T03:13:33;-1.30;1.00
19805;DHT22;10062;51.052;13.756;2023-03-12T03:16:06;-1.40;1.00
19805;DHT22;10062;51.052;13.756;2023-03-12T03:18:38;-1.40;1.00
19805;DHT22;10062;51.052;13.756;2023-03-12T03:21:11;-1.40;1.00
19805;DHT22;10062;51.052;13.756;2023-03-12T03:23:48;-1.40;1.00
19805;DHT22;10062;51.052;13.756;2023-03-12T03:26:21;-1.40;1.00
19805;DHT22;10062;51.052;13.756;2023-03-12T03:28:54;-1.40;1.00
19805;DHT22;10062;51.052;13.756;2023-03-12T03:31:26;-1.30;1.00
19805;DHT22;10062;51.052;13.756;2023-03-12T03:33:58;-1.40;1.00
19805;DHT22;10062;51.052;13.756;2023-03-12T03:36:29;-1.40;1.00
19805;DHT22;10062;51.052;13.756;2023-03-12T03:39:06;-1.80;1.00
19805;DHT22;10062;51.052;13.756;2023-03-12T03:41:38;-1.40;1.00
19805;DHT22;10062;51.052;13.756;2023-03-12T03:44:12;-1.50;1.00
19805;DHT22;10062;51.052;13.756;2023-03-12T03:46:44;-1.50;1.00
19805;DHT22;10062;51.052;13.756;2023-03-12T03:49:17;-1.30;1.00
19805;DHT22;10062;51.052;13.756;2023-03-12T03:51:49;-1.30;1.00
19805;DHT22;10062;51.052;13.756;2023-03-12T03:54:27;-1.30;1.00
19805;DHT22;10062;51.052;13.756;2023-03-12T03:57:00;-1.30;1.00
19805;DHT22;10062;51.052;13.756;2023-03-12T03:59:33;-1.40;1.00
19805;DHT22;10062;51.052;13.756;2023-03-12T04:02:05;-1.30;1.00
19805;DHT22;10062;51.052;13.756;2023-03-12T04:04:41;-1.30;99.90
19805;DHT22;10062;51.052;13.756;2023-03-12T04:07:13;-1.10;1.00
19805;DHT22;10062;51.052;13.756;2023-03-12T04:09:44;-1.10;1.00
19805;DHT22;10062;51.052;13.756;2023-03-12T04:12:17;-1.20;1.00
19805;DHT22;10062;51.052;13.756;2023-03-12T04:14:50;-1.20;1.00
19805;DHT22;10062;51.052;13.756;2023-03-12T04:17:22;-1.30;1.00
19805;DHT22;10062;51.052;13.756;2023-03-12T04:19:54;-1.20;1.00
19805;DHT22;10062;51.052;13.756;2023-03-12T04:22:26;-1.20;1.00
19805;DHT22;10062;51.052;13.756;2023-03-12T04:24:58;-1.30;1.00
19805;DHT22;10062;51.052;13.756;2023-03-12T04:27:29;-1.20;1.00
19805;DHT22;10062;51.052;13.756;2023-03-12T04:30:03;-1.20;1.00
19805;DHT22;10062;51.052;13.756;2023-03-12T04:32:38;-1.10;1.00
19805;DHT22;10062;51.052;13.756;2023-03-12T04:35:10;-1.20;30.80
19805;DHT22;10062;51.052;13.756;2023-03-12T04:37:42;-1.10;1.00
19805;DHT22;10062;51.052;13.756;2023-03-12T04:40:14;-1.20;1.00
19805;DHT22;10062;51.052;13.756;2023-03-12T04:42:48;-1.10;1.00
19805;DHT22;10062;51.052;13.756;2023-03-12T04:45:21;-1.10;99.90
19805;DHT22;10062;51.052;13.756;2023-03-12T04:47:53;-1.20;1.00
19805;DHT22;10062;51.052;13.756;2023-03-12T04:50:25;-1.20;1.00
19805;DHT22;10062;51.052;13.756;2023-03-12T04:52:57;-1.30;92.00
19805;DHT22;10062;51.052;13.756;2023-03-12T04:55:29;-1.30;82.40
19805;DHT22;10062;51.052;13.756;2023-03-12T04:58:01;-1.20;1.00
19805;DHT22;10062;51.052;13.756;2023-03-12T05:00:35;-1.30;99.90
19805;DHT22;10062;51.052;13.756;2023-03-12T05:03:07;-1.30;99.90
19805;DHT22;10062;51.052;13.756;2023-03-12T05:05:39;-1.40;99.90
19805;DHT22;10062;51.052;13.756;2023-03-12T05:08:11;-1.40;99.90
19805;DHT22;10062;51.052;13.756;2023-03-12T05:10:43;-1.50;99.90
19805;DHT22;10062;51.052;13.756;2023-03-12T05:13:19;-1.50;99.90
19805;DHT22;10062;51.052;13.756;2023-03-12T05:15:53;-1.50;99.90
19805;DHT22;10062;51.052;13.756;2023-03-12T05:18:26;-1.60;1.00
19805;DHT22;10062;51.052;13.756;2023-03-12T05:20:59;-1.80;1.00
19805;DHT22;10062;51.052;13.756;2023-03-12T05:23:32;-1.70;1.00
19805;DHT22;10062;51.052;13.756;2023-03-12T05:26:05;-1.60;1.00
19805;DHT22;10062;51.052;13.756;2023-03-12T05:28:37;-1.60;1.00
19805;DHT22;10062;51.052;13.756;2023-03-12T05:31:11;-1.70;1.00
19805;DHT22;10062;51.052;13.756;2023-03-12T05:33:43;-1.70;1.00
19805;DHT22;10062;51.052;13.756;2023-03-12T05:36:16;-1.70;1.00
19805;DHT22;10062;51.052;13.756;2023-03-12T05:38:49;-1.80;1.00
19805;DHT22;10062;51.052;13.756;2023-03-12T05:41:25;-1.80;1.00
19805;DHT22;10062;51.052;13.756;2023-03-12T05:44:00;-1.70;1.00
19805;DHT22;10062;51.052;13.756;2023-03-12T05:46:34;-1.60;1.00
19805;DHT22;10062;51.052;13.756;2023-03-12T05:49:05;-1.50;1.00
19805;DHT22;10062;51.052;13.756;2023-03-12T05:51:38;-1.50;1.00
19805;DHT22;10062;51.052;13.756;2023-03-12T05:54:11;-1.40;1.00
19805;DHT22;10062;51.052;13.756;2023-03-12T05:56:42;-1.40;1.00
19805;DHT22;10062;51.052;13.756;2023-03-12T05:59:14;-1.40;99.90
19805;DHT22;10062;51.052;13.756;2023-03-12T06:01:48;-1.30;99.90
19805;DHT22;10062;51.052;13.756;2023-03-12T06:04:20;-1.20;1.00
19805;DHT22;10062;51.052;13.756;2023-03-12T06:06:52;-1.10;1.00
19805;DHT22;10062;51.052;13.756;2023-03-12T06:09:24;-1.20;1.00
19805;DHT22;10062;51.052;13.756;2023-03-12T06:11:56;-1.20;99.90
19805;DHT22;10062;51.052;13.756;2023-03-12T06:14:28;-1.20;99.90
19805;DHT22;10062;51.052;13.756;2023-03-12T06:17:02;-1.20;7.30
19805;DHT22;10062;51.052;13.756;2023-03-12T06:19:34;-1.20;1.00
19805;DHT22;10062;51.052;13.756;2023-03-12T06:22:06;-1.20;1.00
19805;DHT22;10062;51.052;13.756;2023-03-12T06:24:37;-1.20;1.00
19805;DHT22;10062;51.052;13.756;2023-03-12T06:27:12;-1.00;1.00
19805;DHT22;10062;51.052;13.756;2023-03-12T06:29:43;-0.90;99.90
19805;DHT22;10062;51.052;13.756;2023-03-12T06:32:18;-0.80;1.00
19805;DHT22;10062;51.052;13.756;2023-03-12T06:34:49;-0.50;1.00
19805;DHT22;10062;51.052;13.756;2023-03-12T06:37:21;-0.30;1.00
19805;DHT22;10062;51.052;13.756;2023-03-12T06:39:53;-0.10;1.00
19805;DHT22;10062;51.052;13.756;2023-03-12T06:42:24;0.20;1.00
19805;DHT22;10062;51.052;13.756;2023-03-12T06:44:56;0.40;1.00
19805;DHT22;10062;51.052;13.756;2023-03-12T06:47:29;0.60;1.00
19805;DHT22;10062;51.052;13.756;2023-03-12T06:50:01;0.90;99.90
19805;DHT22;10062;51.052;13.756;2023-03-12T06:52:33;1.20;99.90
19805;DHT22;10062;51.052;13.756;2023-03-12T06:55:05;1.80;1.00
19805;DHT22;10062;51.052;13.756;2023-03-12T06:57:37;2.30;99.90
19805;DHT22;10062;51.052;13.756;2023-03-12T07:00:10;2.70;99.90
19805;DHT22;10062;51.052;13.756;2023-03-12T07:02:43;3.10;1.00
19805;DHT22;10062;51.052;13.756;2023-03-12T07:05:15;3.40;99.90
19805;DHT22;10062;51.052;13.756;2023-03-12T07:07:46;3.80;1.00
19805;DHT22;10062;51.052;13.756;2023-03-12T07:10:18;4.20;1.00
19805;DHT22;10062;51.052;13.756;2023-03-12T07:12:50;4.60;1.00
19805;DHT22;10062;51.052;13.756;2023-03-12T07:15:22;4.80;91.30
19805;DHT22;10062;51.052;13.756;2023-03-12T07:17:58;5.30;1.00
19805;DHT22;10062;51.052;13.756;2023-03-12T07:20:30;5.70;1.00
19805;DHT22;10062;51.052;13.756;2023-03-12T07:23:02;6.10;1.00
19805;DHT22;10062;51.052;13.756;2023-03-12T07:25:34;6.30;1.00
19805;DHT22;10062;51.052;13.756;2023-03-12T07:28:07;6.60;1.00
19805;DHT22;10062;51.052;13.756;2023-03-12T07:30:39;6.90;1.00
19805;DHT22;10062;51.052;13.756;2023-03-12T07:33:12;7.20;1.00
19805;DHT22;10062;51.052;13.756;2023-03-12T07:35:45;7.30;99.90
19805;DHT22;10062;51.052;13.756;2023-03-12T07:38:16;7.30;99.90
19805;DHT22;10062;51.052;13.756;2023-03-12T07:40:49;7.60;99.90
19805;DHT22;10062;51.052;13.756;2023-03-12T07:43:22;8.10;99.90
19805;DHT22;10062;51.052;13.756;2023-03-12T07:45:56;8.30;99.90
19805;DHT22;10062;51.052;13.756;2023-03-12T07:48:29;8.80;99.90
19805;DHT22;10062;51.052;13.756;2023-03-12T07:51:01;9.30;99.90
19805;DHT22;10062;51.052;13.756;2023-03-12T07:53:33;10.20;99.90
19805;DHT22;10062;51.052;13.756;2023-03-12T07:56:05;10.30;99.90
19805;DHT22;10062;51.052;13.756;2023-03-12T07:58:37;10.10;99.90
19805;DHT22;10062;51.052;13.756;2023-03-12T08:01:09;10.10;99.90
19805;DHT22;10062;51.052;13.756;2023-03-12T08:03:42;10.20;99.90
19805;DHT22;10062;51.052;13.756;2023-03-12T08:06:13;10.20;99.90
19805;DHT22;10062;51.052;13.756;2023-03-12T08:08:46;10.00;99.90
19805;DHT22;10062;51.052;13.756;2023-03-12T08:11:17;9.90;99.90
19805;DHT22;10062;51.052;13.756;2023-03-12T08:13:49;9.80;99.90
19805;DHT22;10062;51.052;13.756;2023-03-12T08:16:21;9.80;99.90
19805;DHT22;10062;51.052;13.756;2023-03-12T08:18:54;9.60;99.90
19805;DHT22;10062;51.052;13.756;2023-03-12T08:21:25;9.50;99.90
19805;DHT22;10062;51.052;13.756;2023-03-12T08:23:57;8.40;99.90
19805;DHT22;10062;51.052;13.756;2023-03-12T08:26:28;8.20;99.90
19805;DHT22;10062;51.052;13.756;2023-03-12T08:29:00;8.40;99.90
19805;DHT22;10062;51.052;13.756;2023-03-12T08:31:32;7.70;99.90
19805;DHT22;10062;51.052;13.756;2023-03-12T08:34:05;7.60;99.90
19805;DHT22;10062;51.052;13.756;2023-03-12T08:36:37;9.30;99.90
19805;DHT22;10062;51.052;13.756;2023-03-12T08:39:08;10.70;99.90
19805;DHT22;10062;51.052;13.756;2023-03-12T08:41:40;11.30;99.90
19805;DHT22;10062;51.052;13.756;2023-03-12T08:44:12;11.80;99.90
19805;DHT22;10062;51.052;13.756;2023-03-12T08:46:43;12.40;96.40
19805;DHT22;10062;51.052;13.756;2023-03-12T08:49:17;13.00;92.50
19805;DHT22;10062;51.052;13.756;2023-03-12T08:51:50;12.80;71.40
19805;DHT22;10062;51.052;13.756;2023-03-12T08:54:22;12.40;41.80
19805;DHT22;10062;51.052;13.756;2023-03-12T08:56:53;11.40;22.10
19805;DHT22;10062;51.052;13.756;2023-03-12T08:59:25;11.00;23.90
19805;DHT22;10062;51.052;13.756;2023-03-12T09:01:57;8.90;5.90
19805;DHT22;10062;51.052;13.756;2023-03-12T09:04:30;9.10;18.00
19805;DHT22;10062;51.052;13.756;2023-03-12T09:07:01;9.40;23.10
19805;DHT22;10062;51.052;13.756;2023-03-12T09:09:33;10.00;39.30
19805;DHT22;10062;51.052;13.756;2023-03-12T09:12:05;10.40;37.60
19805;DHT22;10062;51.052;13.756;2023-03-12T09:14:37;10.40;35.20
19805;DHT22;10062;51.052;13.756;2023-03-12T09:17:09;10.60;40.60
19805;DHT22;10062;51.052;13.756;2023-03-12T09:19:42;10.50;38.10
19805;DHT22;10062;51.052;13.756;2023-03-12T09:22:14;10.10;27.10
19805;DHT22;10062;51.052;13.756;2023-03-12T09:24:46;10.10;13.00
19805;DHT22;10062;51.052;13.756;2023-03-12T09:27:18;11.30;23.90
19805;DHT22;10062;51.052;13.756;2023-03-12T09:29:50;13.20;32.00
19805;DHT22;10062;51.052;13.756;2023-03-12T09:32:23;14.90;31.10
19805;DHT22;10062;51.052;13.756;2023-03-12T09:34:57;15.70;15.80
19805;DHT22;10062;51.052;13.756;2023-03-12T09:37:29;15.40;1.00
19805;DHT22;10062;51.052;13.756;2023-03-12T09:40:02;15.40;1.00
19805;DHT22;10062;51.052;13.756;2023-03-12T09:42:41;14.30;1.00
19805;DHT22;10062;51.052;13.756;2023-03-12T09:45:17;15.30;1.00
19805;DHT22;10062;51.052;13.756;2023-03-12T09:47:53;16.10;1.00
19805;DHT22;10062;51.052;13.756;2023-03-12T09:50:29;16.30;1.00
19805;DHT22;10062;51.052;13.756;2023-03-12T09:53:03;17.90;3.70
19805;DHT22;10062;51.052;13.756;2023-03-12T09:55:41;17.40;1.00
19805;DHT22;10062;51.052;13.756;2023-03-12T09:58:18;15.80;1.00
19805;DHT22;10062;51.052;13.756;2023-03-12T10:00:57;14.40;1.00
19805;DHT22;10062;51.052;13.756;2023-03-12T10:03:45;13.70;1.00
19805;DHT22;10062;51.052;13.756;2023-03-12T10:06:22;13.70;1.00
19805;DHT22;10062;51.052;13.756;2023-03-12T10:09:06;15.80;1.00
19805;DHT22;10062;51.052;13.756;2023-03-12T10:11:48;16.60;1.00
19805;DHT22;10062;51.052;13.756;2023-03-12T10:14:37;17.60;1.00
19805;DHT22;10062;51.052;13.756;2023-03-12T10:17:25;18.40;1.00
19805;DHT22;10062;51.052;13.756;2023-03-12T10:20:15;18.70;1.00
19805;DHT22;10062;51.052;13.756;2023-03-12T10:22:57;15.50;1.00
19805;DHT22;10062;51.052;13.756;2023-03-12T10:25:35;15.50;1.00
19805;DHT22;10062;51.052;13.756;2023-03-12T10:28:13;13.80;1.00
19805;DHT22;10062;51.052;13.756;2023-03-12T10:30:49;13.80;1.00
19805;DHT22;10062;51.052;13.756;2023-03-12T10:33:32;13.70;1.00
19805;DHT22;10062;51.052;13.756;2023-03-12T10:36:11;12.30;1.00
19805;DHT22;10062;51.052;13.756;2023-03-12T10:38:46;12.10;1.00
19805;DHT22;10062;51.052;13.756;2023-03-12T10:41:21;13.80;1.00
19805;DHT22;10062;51.052;13.756;2023-03-12T10:43:54;14.80;1.00
19805;DHT22;10062;51.052;13.756;2023-03-12T10:46:42;16.00;1.00
19805;DHT22;10062;51.052;13.756;2023-03-12T10:49:28;17.70;1.00
19805;DHT22;10062;51.052;13.756;2023-03-12T10:52:04;19.30;1.00
19805;DHT22;10062;51.052;13.756;2023-03-12T10:54:39;16.90;1.00
19805;DHT22;10062;51.052;13.756;2023-03-12T10:57:14;14.30;1.00
19805;DHT22;10062;51.052;13.756;2023-03-12T10:59:47;14.00;1.00
19805;DHT22;10062;51.052;13.756;2023-03-12T11:02:32;13.40;1.00
19805;DHT22;10062;51.052;13.756;2023-03-12T11:05:19;14.50;1.00
19805;DHT22;10062;51.052;13.756;2023-03-12T11:07:51;15.20;1.00
19805;DHT22;10062;51.052;13.756;2023-03-12T11:10:25;14.80;1.00
19805;DHT22;10062;51.052;13.756;2023-03-12T11:13:02;13.50;1.00
19805;DHT22;10062;51.052;13.756;2023-03-12T11:15:39;13.40;1.00
19805;DHT22;10062;51.052;13.756;2023-03-12T11:18:21;12.30;1.00
19805;DHT22;10062;51.052;13.756;2023-03-12T11:20:55;12.20;1.00
19805;DHT22;10062;51.052;13.756;2023-03-12T11:23:30;12.80;1.00
19805;DHT22;10062;51.052;13.756;2023-03-12T11:26:09;13.10;1.00
19805;DHT22;10062;51.052;13.756;2023-03-12T11:28:44;12.80;1.00
19805;DHT22;10062;51.052;13.756;2023-03-12T11:31:22;12.40;1.00
19805;DHT22;10062;51.052;13.756;2023-03-12T11:34:00;11.80;1.00
19805;DHT22;10062;51.052;13.756;2023-03-12T11:36:43;11.10;1.00
19805;DHT22;10062;51.052;13.756;2023-03-12T11:39:22;10.90;1.00
19805;DHT22;10062;51.052;13.756;2023-03-12T11:42:09;11.60;1.00
19805;DHT22;10062;51.052;13.756;2023-03-12T11:44:51;11.60;1.00
19805;DHT22;10062;51.052;13.756;2023-03-12T11:47:35;12.10;1.00
19805;DHT22;10062;51.052;13.756;2023-03-12T11:50:20;12.80;1.00
19805;DHT22;10062;51.052;13.756;2023-03-12T11:53:07;13.30;1.00
19805;DHT22;10062;51.052;13.756;2023-03-12T11:55:48;13.60;1.00
19805;DHT22;10062;51.052;13.756;2023-03-12T11:58:39;13.60;1.00
19805;DHT22;10062;51.052;13.756;2023-03-12T12:01:18;13.50;1.00
19805;DHT22;10062;51.052;13.756;2023-03-12T12:06:54;12.90;1.00
19805;DHT22;10062;51.052;13.756;2023-03-12T12:09:35;13.00;1.00
19805;DHT22;10062;51.052;13.756;2023-03-12T12:12:20;13.10;1.00
19805;DHT22;10062;51.052;13.756;2023-03-12T12:15:07;12.70;1.00
19805;DHT22;10062;51.052;13.756;2023-03-12T12:17:50;12.50;1.00
19805;DHT22;10062;51.052;13.756;2023-03-12T12:20:31;12.40;1.00
19805;DHT22;10062;51.052;13.756;2023-03-12T12:23:16;12.40;1.00
19805;DHT22;10062;51.052;13.756;2023-03-12T12:26:06;12.30;1.00
19805;DHT22;10062;51.052;13.756;2023-03-12T12:29:02;12.40;1.00
19805;DHT22;10062;51.052;13.756;2023-03-12T12:31:40;12.20;1.00
19805;DHT22;10062;51.052;13.756;2023-03-12T12:37:19;12.00;1.00
19805;DHT22;10062;51.052;13.756;2023-03-12T12:39:57;11.80;1.00
19805;DHT22;10062;51.052;13.756;2023-03-12T12:42:33;12.00;1.00
19805;DHT22;10062;51.052;13.756;2023-03-12T12:45:12;11.80;1.00
19805;DHT22;10062;51.052;13.756;2023-03-12T12:47:48;11.40;1.00
19805;DHT22;10062;51.052;13.756;2023-03-12T12:50:24;10.80;1.00
19805;DHT22;10062;51.052;13.756;2023-03-12T12:53:01;10.70;1.00
19805;DHT22;10062;51.052;13.756;2023-03-12T12:55:36;9.80;1.00
19805;DHT22;10062;51.052;13.756;2023-03-12T12:58:14;9.50;1.00
19805;DHT22;10062;51.052;13.756;2023-03-12T13:00:50;9.60;1.00
19805;DHT22;10062;51.052;13.756;2023-03-12T13:03:26;9.50;1.00
19805;DHT22;10062;51.052;13.756;2023-03-12T13:06:01;9.50;1.00
19805;DHT22;10062;51.052;13.756;2023-03-12T13:11:29;9.70;1.00
19805;DHT22;10062;51.052;13.756;2023-03-12T13:17:23;9.40;1.00
19805;DHT22;10062;51.052;13.756;2023-03-12T13:20:12;9.00;1.00
19805;DHT22;10062;51.052;13.756;2023-03-12T13:23:04;8.90;1.00
19805;DHT22;10062;51.052;13.756;2023-03-12T13:25:47;8.60;1.00
19805;DHT22;10062;51.052;13.756;2023-03-12T13:28:56;8.60;1.00
19805;DHT22;10062;51.052;13.756;2023-03-12T13:31:39;8.50;1.00
19805;DHT22;10062;51.052;13.756;2023-03-12T13:34:41;8.30;1.00
19805;DHT22;10062;51.052;13.756;2023-03-12T13:37:27;8.20;1.00
19805;DHT22;10062;51.052;13.756;2023-03-12T13:40:00;8.20;1.00
19805;DHT22;10062;51.052;13.756;2023-03-12T13:42:39;8.10;1.00
19805;DHT22;10062;51.052;13.756;2023-03-12T13:45:26;8.00;1.00
19805;DHT22;10062;51.052;13.756;2023-03-12T13:48:03;8.10;1.00
19805;DHT22;10062;51.052;13.756;2023-03-12T13:50:41;8.20;1.00
19805;DHT22;10062;51.052;13.756;2023-03-12T13:53:23;8.40;1.00
19805;DHT22;10062;51.052;13.756;2023-03-12T13:56:01;8.60;1.00
19805;DHT22;10062;51.052;13.756;2023-03-12T13:58:40;8.60;1.00
19805;DHT22;10062;51.052;13.756;2023-03-12T14:01:14;8.40;1.00
19805;DHT22;10062;51.052;13.756;2023-03-12T14:03:49;8.50;1.00
19805;DHT22;10062;51.052;13.756;2023-03-12T14:06:24;8.60;1.00
19805;DHT22;10062;51.052;13.756;2023-03-12T14:09:13;8.20;1.00
19805;DHT22;10062;51.052;13.756;2023-03-12T14:11:59;7.90;1.00
19805;DHT22;10062;51.052;13.756;2023-03-12T14:14:52;7.70;1.00
19805;DHT22;10062;51.052;13.756;2023-03-12T14:17:29;7.80;1.00
19805;DHT22;10062;51.052;13.756;2023-03-12T14:20:04;7.70;1.00
19805;DHT22;10062;51.052;13.756;2023-03-12T14:22:42;7.40;1.00
19805;DHT22;10062;51.052;13.756;2023-03-12T14:25:24;7.40;1.00
19805;DHT22;10062;51.052;13.756;2023-03-12T14:27:57;7.60;1.00
19805;DHT22;10062;51.052;13.756;2023-03-12T14:30:41;7.70;1.00
19805;DHT22;10062;51.052;13.756;2023-03-12T14:33:15;7.70;1.00
19805;DHT22;10062;51.052;13.756;2023-03-12T14:35:52;7.70;1.00
19805;DHT22;10062;51.052;13.756;2023-03-12T14:38:28;7.60;55.40
19805;DHT22;10062;51.052;13.756;2023-03-12T14:41:04;7.40;99.90
19805;DHT22;10062;51.052;13.756;2023-03-12T14:43:42;7.30;99.90
19805;DHT22;10062;51.052;13.756;2023-03-12T14:46:18;7.40;99.90
19805;DHT22;10062;51.052;13.756;2023-03-12T14:48:51;7.40;1.00
19805;DHT22;10062;51.052;13.756;2023-03-12T14:51:26;7.20;1.00
19805;DHT22;10062;51.052;13.756;2023-03-12T14:54:01;6.60;99.90
19805;DHT22;10062;51.052;13.756;2023-03-12T14:56:34;6.80;99.90
19805;DHT22;10062;51.052;13.756;2023-03-12T14:59:21;6.60;99.90
19805;DHT22;10062;51.052;13.756;2023-03-12T15:01:58;6.30;1.00
19805;DHT22;10062;51.052;13.756;2023-03-12T15:04:32;6.10;1.00
19805;DHT22;10062;51.052;13.756;2023-03-12T15:07:06;6.20;99.90
19805;DHT22;10062;51.052;13.756;2023-03-12T15:09:43;6.10;1.00
19805;DHT22;10062;51.052;13.756;2023-03-12T15:12:21;6.10;1.00
19805;DHT22;10062;51.052;13.756;2023-03-12T15:14:55;6.20;99.90
19805;DHT22;10062;51.052;13.756;2023-03-12T15:17:31;6.20;1.00
19805;DHT22;10062;51.052;13.756;2023-03-12T15:20:05;6.00;99.90
19805;DHT22;10062;51.052;13.756;2023-03-12T15:22:39;5.90;1.00
19805;DHT22;10062;51.052;13.756;2023-03-12T15:25:21;5.90;99.90
19805;DHT22;10062;51.052;13.756;2023-03-12T15:28:02;5.90;1.00
19805;DHT22;10062;51.052;13.756;2023-03-12T15:30:36;5.70;1.00
19805;DHT22;10062;51.052;13.756;2023-03-12T15:33:11;5.50;99.90
19805;DHT22;10062;51.052;13.756;2023-03-12T15:35:59;5.50;1.00
19805;DHT22;10062;51.052;13.756;2023-03-12T15:38:33;5.50;99.90
19805;DHT22;10062;51.052;13.756;2023-03-12T15:41:07;5.80;99.90
19805;DHT22;10062;51.052;13.756;2023-03-12T15:43:43;6.00;1.00
19805;DHT22;10062;51.052;13.756;2023-03-12T15:46:17;5.90;99.90
19805;DHT22;10062;51.052;13.756;2023-03-12T15:48:50;5.90;99.90
19805;DHT22;10062;51.052;13.756;2023-03-12T15:51:28;6.00;1.00
19805;DHT22;10062;51.052;13.756;2023-03-12T15:54:05;5.80;1.00
19805;DHT22;10062;51.052;13.756;2023-03-12T15:56:38;5.60;36.30
19805;DHT22;10062;51.052;13.756;2023-03-12T15:59:22;5.50;1.00
19805;DHT22;10062;51.052;13.756;2023-03-12T16:01:55;5.70;1.00
19805;DHT22;10062;51.052;13.756;2023-03-12T16:04:27;5.40;1.00
19805;DHT22;10062;51.052;13.756;2023-03-12T16:06:58;5.40;1.00
19805;DHT22;10062;51.052;13.756;2023-03-12T16:09:32;5.50;1.00
19805;DHT22;10062;51.052;13.756;2023-03-12T16:12:07;5.50;99.90
19805;DHT22;10062;51.052;13.756;2023-03-12T16:14:42;5.50;1.00
19805;DHT22;10062;51.052;13.756;2023-03-12T16:17:21;5.30;99.90
19805;DHT22;10062;51.052;13.756;2023-03-12T16:19:53;5.30;1.00
19805;DHT22;10062;51.052;13.756;2023-03-12T16:22:24;5.30;1.00
19805;DHT22;10062;51.052;13.756;2023-03-12T16:24:56;5.50;99.90
19805;DHT22;10062;51.052;13.756;2023-03-12T16:27:28;5.80;1.00
19805;DHT22;10062;51.052;13.756;2023-03-12T16:30:01;5.60;99.90
19805;DHT22;10062;51.052;13.756;2023-03-12T16:32:32;5.70;92.00
19805;DHT22;10062;51.052;13.756;2023-03-12T16:35:10;5.80;1.00